| time (UTC) | temp F | wind direction | speed MPH | gust MPH | rain 1hr in | rain 24hr in | rain mn in | humidity % | barometer mb |
| 20260510212531 | 55 | 329 | 10.0 | 14.0 | 0.00 | 0.00 | 0.00 | 37 | 1018.3 |
| 20260510211528 | 55 | 325 | 10.0 | 14.0 | 0.00 | 0.00 | 0.00 | 36 | 1018.4 |
| 20260510210546 | 55 | 329 | 9.0 | 11.0 | 0.00 | 0.00 | 0.00 | 34 | 1018.2 |
| 20260510205603 | 54 | 322 | 8.0 | 13.0 | 0.00 | 0.00 | 0.00 | 36 | 1018.1 |
| 20260510204520 | 54 | 332 | 9.0 | 14.0 | 0.00 | 0.00 | 0.00 | 37 | 1018.1 |
| 20260510203518 | 55 | 329 | 10.0 | 13.0 | 0.00 | 0.00 | 0.00 | 37 | 1018.2 |
| 20260510202535 | 54 | 312 | 10.0 | 14.0 | 0.00 | 0.00 | 0.00 | 35 | 1018.3 |
| 20260510201552 | 53 | 326 | 10.0 | 14.0 | 0.00 | 0.00 | 0.00 | 35 | 1018.4 |
| 20260510200529 | 53 | 326 | 10.0 | 14.0 | 0.00 | 0.00 | 0.00 | 38 | 1018.3 |
| 20260510195527 | 53 | 332 | 9.0 | 14.0 | 0.00 | 0.00 | 0.00 | 38 | 1018.4 |
| 20260510194523 | 53 | 321 | 7.0 | 12.0 | 0.00 | 0.00 | 0.00 | 37 | 1018.2 |
| 20260510193520 | 53 | 328 | 12.0 | 17.0 | 0.00 | 0.00 | 0.00 | 37 | 1018.3 |
| 20260510192518 | 53 | 330 | 12.0 | 18.0 | 0.00 | 0.00 | 0.00 | 37 | 1018.1 |
| 20260510191535 | 53 | 331 | 11.0 | 18.0 | 0.00 | 0.00 | 0.00 | 38 | 1018.1 |
| 20260510190532 | 54 | 334 | 10.0 | 16.0 | 0.00 | 0.00 | 0.00 | 38 | 1018.0 |
| 20260510185529 | 53 | 327 | 11.0 | 20.0 | 0.00 | 0.00 | 0.00 | 38 | 1018.0 |
| 20260510184527 | 53 | 318 | 11.0 | 16.0 | 0.00 | 0.00 | 0.00 | 37 | 1018.2 |
| 20260510183544 | 53 | 333 | 12.0 | 19.0 | 0.00 | 0.00 | 0.00 | 39 | 1018.0 |
| 20260510182521 | 53 | 327 | 12.0 | 19.0 | 0.00 | 0.00 | 0.00 | 38 | 1017.9 |
| 20260510181518 | 52 | 319 | 12.0 | 18.0 | 0.00 | 0.00 | 0.00 | 38 | 1018.0 |
| 20260510180516 | 53 | 333 | 12.0 | 19.0 | 0.00 | 0.00 | 0.00 | 38 | 1017.8 |
| 20260510175533 | 52 | 327 | 13.0 | 19.0 | 0.00 | 0.00 | 0.00 | 39 | 1018.0 |
| 20260510174530 | 52 | 334 | 14.0 | 23.0 | 0.00 | 0.00 | 0.00 | 39 | 1017.8 |
| 20260510173527 | 52 | 331 | 13.0 | 20.0 | 0.00 | 0.00 | 0.00 | 40 | 1017.8 |
| 20260510172525 | 53 | 333 | 14.0 | 22.0 | 0.00 | 0.00 | 0.00 | 39 | 1017.9 |
| 20260510171522 | 52 | 334 | 13.0 | 18.0 | 0.00 | 0.00 | 0.00 | 40 | 1017.6 |
| 20260510170519 | 52 | 336 | 14.0 | 21.0 | 0.00 | 0.00 | 0.00 | 41 | 1017.8 |
| 20260510165517 | 51 | 330 | 15.0 | 22.0 | 0.00 | 0.00 | 0.00 | 41 | 1017.9 |
| 20260510164533 | 51 | 332 | 14.0 | 21.0 | 0.00 | 0.00 | 0.00 | 41 | 1017.8 |
| 20260510163530 | 50 | 319 | 13.0 | 18.0 | 0.00 | 0.00 | 0.00 | 42 | 1018.1 |
| 20260510162529 | 51 | 320 | 11.0 | 19.0 | 0.00 | 0.00 | 0.00 | 43 | 1018.0 |
| 20260510161525 | 51 | 334 | 12.0 | 19.0 | 0.00 | 0.00 | 0.00 | 44 | 1017.8 |
| 20260510160542 | 51 | 329 | 14.0 | 22.0 | 0.00 | 0.00 | 0.00 | 43 | 1017.7 |
| 20260510155519 | 50 | 330 | 10.0 | 16.0 | 0.00 | 0.00 | 0.00 | 49 | 1017.5 |
| 20260510154516 | 50 | 332 | 11.0 | 17.0 | 0.00 | 0.00 | 0.00 | 50 | 1017.5 |
| 20260510153533 | 49 | 323 | 9.0 | 13.0 | 0.00 | 0.00 | 0.00 | 50 | 1017.4 |
| 20260510152531 | 49 | 335 | 9.0 | 15.0 | 0.00 | 0.00 | 0.00 | 55 | 1017.4 |
| 20260510151528 | 48 | 336 | 9.0 | 14.0 | 0.00 | 0.00 | 0.00 | 55 | 1017.3 |
| 20260510150525 | 49 | 337 | 10.0 | 14.0 | 0.00 | 0.00 | 0.00 | 55 | 1017.4 |
| 20260510145523 | 48 | 334 | 10.0 | 14.0 | 0.00 | 0.00 | 0.00 | 59 | 1017.3 |
| 20260510144520 | 48 | 333 | 10.0 | 15.0 | 0.00 | 0.00 | 0.00 | 59 | 1017.1 |
| 20260510143517 | 47 | 327 | 9.0 | 13.0 | 0.00 | 0.00 | 0.00 | 63 | 1017.2 |
| 20260510142534 | 47 | 335 | 10.0 | 15.0 | 0.00 | 0.00 | 0.00 | 63 | 1017.3 |
| 20260510141531 | 46 | 327 | 8.0 | 12.0 | 0.00 | 0.00 | 0.00 | 66 | 1017.2 |
| 20260510140528 | 46 | 323 | 10.0 | 14.0 | 0.00 | 0.00 | 0.00 | 67 | 1017.2 |
| 20260510135525 | 45 | 331 | 9.0 | 14.0 | 0.00 | 0.00 | 0.00 | 68 | 1017.1 |
| 20260510134522 | 45 | 334 | 8.0 | 12.0 | 0.00 | 0.00 | 0.00 | 70 | 1017.1 |
| 20260510133521 | 44 | 339 | 9.0 | 15.0 | 0.00 | 0.00 | 0.00 | 70 | 1017.1 |
| 20260510132517 | 44 | 340 | 8.0 | 13.0 | 0.00 | 0.00 | 0.00 | 70 | 1017.1 |
| 20260510131534 | 44 | 341 | 9.0 | 12.0 | 0.00 | 0.00 | 0.00 | 70 | 1017.0 |
| 20260510130531 | 44 | 336 | 8.0 | 11.0 | 0.00 | 0.00 | 0.00 | 70 | 1017.0 |
| 20260510125608 | 43 | 342 | 8.0 | 12.0 | 0.00 | 0.00 | 0.00 | 71 | 1017.0 |
| 20260510124545 | 43 | 342 | 7.0 | 11.0 | 0.00 | 0.00 | 0.00 | 72 | 1017.1 |
| 20260510123522 | 43 | 335 | 7.0 | 9.0 | 0.00 | 0.00 | 0.00 | 72 | 1016.9 |
| 20260510122600 | 42 | 334 | 6.0 | 9.0 | 0.00 | 0.00 | 0.00 | 75 | 1016.8 |
| 20260510121537 | 38 | 348 | 3.0 | 6.0 | 0.00 | 0.00 | 0.00 | 87 | 1016.7 |
| 20260510120534 | 36 | 24 | 2.0 | 3.0 | 0.00 | 0.00 | 0.00 | 89 | 1016.5 |
| 20260510115551 | 36 | 6 | 2.0 | 3.0 | 0.00 | 0.00 | 0.00 | 90 | 1016.4 |
| 20260510114528 | 35 | 25 | 2.0 | 2.0 | 0.00 | 0.00 | 0.00 | 90 | 1016.3 |
| 20260510113526 | 34 | 18 | 2.0 | 2.0 | 0.00 | 0.00 | 0.00 | 94 | 1016.3 |
| 20260510112523 | 34 | 13 | 2.0 | 3.0 | 0.00 | 0.00 | 0.00 | 94 | 1016.2 |
| 20260510111520 | 34 | 19 | 2.0 | 2.0 | 0.00 | 0.01 | 0.00 | 94 | 1016.0 |
| 20260510110517 | 34 | 39 | 1.0 | 2.0 | 0.00 | 0.04 | 0.00 | 93 | 1016.0 |
| 20260510105534 | 34 | 29 | 1.0 | 2.0 | 0.00 | 0.06 | 0.00 | 93 | 1015.7 |
| 20260510104531 | 34 | 28 | 2.0 | 3.0 | 0.00 | 0.09 | 0.00 | 92 | 1015.6 |
| 20260510103529 | 35 | 359 | 2.0 | 2.0 | 0.00 | 0.10 | 0.00 | 89 | 1015.5 |
| 20260510102526 | 38 | 359 | 2.0 | 3.0 | 0.00 | 0.11 | 0.00 | 81 | 1015.4 |
| 20260510101524 | 40 | 5 | 2.0 | 3.0 | 0.00 | 0.11 | 0.00 | 73 | 1015.3 |
| 20260510100520 | 41 | 343 | 5.0 | 8.0 | 0.00 | 0.11 | 0.00 | 67 | 1014.9 |
| 20260510095517 | 41 | 347 | 6.0 | 9.0 | 0.00 | 0.11 | 0.00 | 68 | 1014.9 |
| 20260510094535 | 35 | 344 | 4.0 | 10.0 | 0.00 | 0.11 | 0.00 | 84 | 1014.9 |
| 20260510093532 | 32 | 56 | 1.0 | 2.0 | 0.00 | 0.11 | 0.00 | 91 | 1014.8 |
| 20260510092529 | 32 | 28 | 3.0 | 4.0 | 0.00 | 0.11 | 0.00 | 90 | 1014.7 |
| 20260510091526 | 31 | 7 | 3.0 | 4.0 | 0.00 | 0.11 | 0.00 | 89 | 1014.5 |
| 20260510090523 | 31 | 22 | 2.0 | 4.0 | 0.00 | 0.11 | 0.00 | 90 | 1014.3 |
| 20260510085521 | 31 | 27 | 2.0 | 3.0 | 0.00 | 0.11 | 0.00 | 89 | 1014.2 |
| 20260510084518 | 31 | 12 | 2.0 | 3.0 | 0.00 | 0.11 | 0.00 | 89 | 1014.2 |
| 20260510083515 | 32 | 23 | 2.0 | 3.0 | 0.00 | 0.11 | 0.00 | 88 | 1014.1 |
| 20260510082532 | 31 | 16 | 3.0 | 3.0 | 0.00 | 0.11 | 0.00 | 88 | 1014.0 |
| 20260510081610 | 32 | 21 | 2.0 | 3.0 | 0.00 | 0.11 | 0.00 | 87 | 1013.9 |
| 20260510080527 | 32 | 20 | 2.0 | 3.0 | 0.00 | 0.11 | 0.00 | 87 | 1013.9 |
| 20260510075525 | 32 | 13 | 3.0 | 3.0 | 0.00 | 0.11 | 0.00 | 86 | 1013.8 |
| 20260510074541 | 33 | 13 | 2.0 | 3.0 | 0.00 | 0.11 | 0.00 | 86 | 1013.7 |
| 20260510073518 | 33 | 15 | 2.0 | 3.0 | 0.00 | 0.11 | 0.00 | 85 | 1013.6 |
| 20260510072515 | 34 | 14 | 2.0 | 3.0 | 0.00 | 0.11 | 0.00 | 84 | 1013.6 |
| 20260510071554 | 34 | 12 | 3.0 | 3.0 | 0.00 | 0.11 | 0.00 | 86 | 1013.6 |
| 20260510070530 | 34 | 11 | 2.0 | 3.0 | 0.00 | 0.11 | 0.00 | 86 | 1013.6 |
| 20260510065527 | 34 | 20 | 2.0 | 3.0 | 0.00 | 0.11 | 0.00 | 88 | 1013.5 |
| 20260510064524 | 36 | 33 | 1.0 | 2.0 | 0.00 | 0.11 | 0.00 | 85 | 1013.5 |
| 20260510063522 | 36 | 60 | 1.0 | 2.0 | 0.00 | 0.11 | 0.00 | 79 | 1013.4 |
| 20260510062519 | 36 | 39 | 1.0 | 2.0 | 0.00 | 0.11 | 0.00 | 78 | 1013.4 |
| 20260510061516 | 36 | 16 | 2.0 | 2.0 | 0.00 | 0.11 | 0.00 | 76 | 1013.3 |
| 20260510060533 | 37 | 12 | 2.0 | 3.0 | 0.00 | 0.11 | 0.00 | 75 | 1013.5 |
| 20260510055530 | 37 | 14 | 2.0 | 3.0 | 0.00 | 0.11 | 0.00 | 74 | 1013.3 |
| 20260510054527 | 38 | 9 | 2.0 | 3.0 | 0.00 | 0.11 | 0.00 | 72 | 1013.2 |
| 20260510053525 | 40 | 1 | 3.0 | 4.0 | 0.00 | 0.11 | 0.00 | 67 | 1013.1 |
| 20260510052522 | 41 | 360 | 3.0 | 4.0 | 0.00 | 0.11 | 0.00 | 66 | 1013.0 |
| 20260510051520 | 43 | 353 | 4.0 | 6.0 | 0.00 | 0.11 | 0.00 | 58 | 1012.9 |
| 20260510050556 | 44 | 349 | 5.0 | 8.0 | 0.00 | 0.11 | 0.00 | 55 | 1012.9 |
| 20260510045534 | 44 | 348 | 5.0 | 8.0 | 0.00 | 0.11 | 0.11 | 56 | 1012.8 |
| 20260510044551 | 44 | 344 | 6.0 | 7.0 | 0.00 | 0.11 | 0.11 | 55 | 1012.8 |
| 20260510043528 | 45 | 345 | 6.0 | 8.0 | 0.00 | 0.11 | 0.11 | 53 | 1012.8 |
| 20260510042526 | 46 | 341 | 6.0 | 8.0 | 0.00 | 0.11 | 0.11 | 52 | 1012.7 |
| 20260510041522 | 47 | 338 | 7.0 | 10.0 | 0.00 | 0.11 | 0.11 | 49 | 1012.7 |
| 20260510040519 | 48 | 333 | 8.0 | 11.0 | 0.00 | 0.11 | 0.11 | 49 | 1012.7 |
| 20260510035517 | 48 | 333 | 9.0 | 12.0 | 0.00 | 0.11 | 0.11 | 48 | 1012.5 |
| 20260510034534 | 47 | 335 | 8.0 | 12.0 | 0.00 | 0.11 | 0.11 | 49 | 1012.4 |
| 20260510033531 | 45 | 343 | 6.0 | 8.0 | 0.00 | 0.11 | 0.11 | 54 | 1012.2 |
| 20260510032528 | 46 | 346 | 5.0 | 6.0 | 0.00 | 0.11 | 0.11 | 50 | 1012.1 |
| 20260510031545 | 46 | 346 | 6.0 | 8.0 | 0.00 | 0.11 | 0.11 | 50 | 1012.0 |
| 20260510030544 | 45 | 349 | 6.0 | 8.0 | 0.00 | 0.11 | 0.11 | 53 | 1011.8 |
| 20260510025520 | 44 | 352 | 5.0 | 6.0 | 0.00 | 0.11 | 0.11 | 54 | 1011.6 |
| 20260510024517 | 45 | 351 | 5.0 | 6.0 | 0.00 | 0.11 | 0.11 | 54 | 1011.3 |
| 20260510023534 | 46 | 350 | 6.0 | 7.0 | 0.00 | 0.11 | 0.11 | 50 | 1011.1 |
| 20260510022531 | 45 | 353 | 5.0 | 6.0 | 0.00 | 0.11 | 0.11 | 54 | 1011.0 |
| 20260510021529 | 46 | 341 | 6.0 | 7.0 | 0.00 | 0.11 | 0.11 | 50 | 1010.8 |
| 20260510020526 | 49 | 341 | 6.0 | 8.0 | 0.00 | 0.11 | 0.11 | 45 | 1010.6 |
| 20260510015524 | 49 | 338 | 7.0 | 10.0 | 0.00 | 0.11 | 0.11 | 44 | 1010.5 |
| 20260510014540 | 50 | 334 | 8.0 | 11.0 | 0.00 | 0.11 | 0.11 | 42 | 1010.2 |
| 20260510013517 | 51 | 333 | 8.0 | 10.0 | 0.00 | 0.11 | 0.11 | 40 | 1010.1 |
| 20260510012535 | 52 | 330 | 8.0 | 12.0 | 0.00 | 0.11 | 0.11 | 40 | 1009.8 |
| 20260510011532 | 52 | 332 | 9.0 | 13.0 | 0.00 | 0.11 | 0.11 | 39 | 1009.5 |
| 20260510010529 | 53 | 329 | 11.0 | 14.0 | 0.00 | 0.11 | 0.11 | 37 | 1009.4 |
| 20260510005526 | 53 | 329 | 9.0 | 12.0 | 0.00 | 0.11 | 0.11 | 38 | 1009.4 |
| 20260510004544 | 54 | 330 | 10.0 | 14.0 | 0.00 | 0.11 | 0.11 | 38 | 1009.3 |
| 20260510003520 | 54 | 332 | 10.0 | 13.0 | 0.00 | 0.11 | 0.11 | 38 | 1009.2 |
| 20260510002518 | 54 | 331 | 10.0 | 12.0 | 0.00 | 0.11 | 0.11 | 38 | 1009.0 |
| 20260510001535 | 55 | 325 | 11.0 | 15.0 | 0.00 | 0.11 | 0.11 | 37 | 1008.9 |
| 20260510000553 | 55 | 326 | 11.0 | 15.0 | 0.00 | 0.11 | 0.11 | 37 | 1008.8 |
| 20260509235529 | 56 | 327 | 11.0 | 14.0 | 0.00 | 0.11 | 0.11 | 36 | 1008.7 |
| 20260509234527 | 56 | 324 | 11.0 | 18.0 | 0.00 | 0.11 | 0.11 | 36 | 1008.5 |
| 20260509233525 | 56 | 324 | 12.0 | 16.0 | 0.00 | 0.11 | 0.11 | 36 | 1008.4 |
| 20260509232521 | 56 | 320 | 12.0 | 18.0 | 0.00 | 0.11 | 0.11 | 36 | 1008.3 |
| 20260509231519 | 56 | 322 | 11.0 | 17.0 | 0.00 | 0.11 | 0.11 | 36 | 1008.2 |
| 20260509230556 | 56 | 322 | 12.0 | 17.0 | 0.00 | 0.11 | 0.11 | 35 | 1008.0 |
| 20260509225533 | 57 | 326 | 13.0 | 21.0 | 0.00 | 0.11 | 0.11 | 34 | 1008.0 |
| 20260509224530 | 57 | 325 | 12.0 | 16.0 | 0.00 | 0.11 | 0.11 | 34 | 1007.8 |
| 20260509223527 | 56 | 326 | 12.0 | 15.0 | 0.00 | 0.11 | 0.11 | 34 | 1007.7 |
| 20260509222526 | 56 | 330 | 14.0 | 18.0 | 0.00 | 0.11 | 0.11 | 34 | 1007.7 |
| 20260509221522 | 55 | 332 | 12.0 | 19.0 | 0.00 | 0.11 | 0.11 | 35 | 1007.6 |
| 20260509220519 | 56 | 330 | 12.0 | 17.0 | 0.00 | 0.11 | 0.11 | 35 | 1007.4 |
| 20260509215516 | 56 | 322 | 10.0 | 14.0 | 0.00 | 0.11 | 0.11 | 36 | 1007.5 |
| 20260509214534 | 57 | 332 | 11.0 | 19.0 | 0.00 | 0.11 | 0.11 | 35 | 1007.2 |
| 20260509213531 | 56 | 329 | 12.0 | 23.0 | 0.00 | 0.11 | 0.11 | 35 | 1007.2 |